Time;durP1;ratioP1;P1;durP2;ratioP2;P2;SDS_P1;SDS_P2;PMS_P1;PMS_P2;Temp;Humidity;BMP_temperature;BMP_pressure;BME280_temperature;BME280_humidity;BME280_pressure;Samples;Min_cycle;Max_cycle;Signal;HPM_P1;HPM_P2
2022/01/02 00:00:22;;;;;;;11.57;5.93;;;12.50;99.90;;;;;;5055474;28;20421;-85
2022/01/02 00:02:51;;;;;;;13.23;5.82;;;12.10;99.90;;;;;;5055685;28;20044;-86
2022/01/02 00:05:20;;;;;;;13.38;5.75;;;12.60;99.90;;;;;;5038701;28;20045;-85
2022/01/02 00:07:57;;;;;;;15.65;5.82;;;12.10;99.90;;;;;;5038732;28;20036;-85
2022/01/02 00:10:24;;;;;;;20.55;6.40;;;12.40;99.90;;;;;;5055212;28;20050;-85
2022/01/02 00:12:56;;;;;;;11.68;4.93;;;12.10;99.90;;;;;;5038757;28;20036;-85
2022/01/02 00:15:22;;;;;;;13.32;5.72;;;13.90;99.90;;;;;;5055837;28;20471;-86
2022/01/02 00:17:51;;;;;;;16.40;5.40;;;12.10;99.90;;;;;;5038958;28;20396;-85
2022/01/02 00:20:21;;;;;;;14.20;5.93;;;12.00;99.90;;;;;;5038538;28;20102;-86
2022/01/02 00:22:50;;;;;;;13.13;6.00;;;12.10;99.90;;;;;;5038852;28;20082;-85
2022/01/02 00:25:33;;;;;;;15.68;6.85;;;12.00;99.90;;;;;;5038603;28;20051;-85
2022/01/02 00:28:00;;;;;;;15.27;5.63;;;12.60;99.90;;;;;;5038731;28;20431;-85
2022/01/02 00:30:26;;;;;;;17.98;6.70;;;12.00;99.90;;;;;;5038605;28;20040;-85
2022/01/02 00:32:52;;;;;;;13.55;5.53;;;12.00;99.90;;;;;;5055602;28;20081;-85
2022/01/02 00:35:18;;;;;;;13.38;5.43;;;12.00;99.90;;;;;;5055597;28;20051;-85
2022/01/02 00:37:44;;;;;;;10.73;5.35;;;12.00;99.90;;;;;;5038620;28;20409;-85
2022/01/02 00:40:13;;;;;;;17.08;5.53;;;12.00;99.90;;;;;;5038369;28;20044;-85
2022/01/02 00:46:52;;;;;;;18.48;6.07;;;12.10;99.90;;;;;;5076917;28;20067;-85
2022/01/02 00:49:25;;;;;;;15.73;6.07;;;11.90;99.90;;;;;;5076765;28;20040;-85
2022/01/02 00:52:03;;;;;;;10.70;5.07;;;12.00;99.90;;;;;;5059090;28;20070;-85
2022/01/02 00:54:30;;;;;;;11.20;6.25;;;11.60;99.90;;;;;;5058761;28;20484;-85
2022/01/02 00:57:02;;;;;;;10.52;6.07;;;11.70;99.90;;;;;;5042086;28;20044;-85
2022/01/02 00:59:29;;;;;;;12.40;5.78;;;11.70;99.90;;;;;;5042016;28;20127;-85
2022/01/02 01:02:02;;;;;;;10.50;6.00;;;13.00;99.90;;;;;;5058595;28;20127;-85
2022/01/02 01:04:31;;;;;;;11.65;5.55;;;12.90;99.90;;;;;;5042409;28;20105;-86
2022/01/02 01:07:02;;;;;;;10.15;4.72;;;13.80;99.90;;;;;;5041694;28;20048;-85
2022/01/02 01:09:29;;;;;;;14.15;6.20;;;13.10;99.90;;;;;;5041790;28;20044;-85
2022/01/02 01:11:58;;;;;;;16.65;6.78;;;13.60;99.90;;;;;;5058491;28;20127;-85
2022/01/02 01:14:25;;;;;;;13.65;5.28;;;13.00;99.90;;;;;;5058262;28;20048;-85
2022/01/02 01:16:52;;;;;;;10.57;4.95;;;11.90;99.90;;;;;;5042079;28;20052;-85
2022/01/02 01:19:17;;;;;;;9.32;4.38;;;11.80;99.90;;;;;;5058411;28;20076;-86
2022/01/02 01:21:43;;;;;;;16.02;5.13;;;12.80;99.90;;;;;;5041676;28;20045;-86
2022/01/02 01:24:09;;;;;;;13.55;5.85;;;13.00;99.90;;;;;;5048095;28;20048;-85
2022/01/02 01:26:34;;;;;;;17.50;6.47;;;11.80;99.90;;;;;;5078278;28;20420;-86
2022/01/02 01:29:00;;;;;;;16.45;5.25;;;12.50;99.90;;;;;;5061793;28;20107;-85
2022/01/02 01:31:26;;;;;;;14.48;4.60;;;12.10;99.90;;;;;;5096637;28;20079;-86
2022/01/02 01:33:52;;;;;;;14.57;6.28;;;13.00;99.90;;;;;;5062298;28;20462;-86
2022/01/02 01:36:17;;;;;;;17.20;6.38;;;12.40;99.90;;;;;;5078009;28;20101;-85
2022/01/02 01:38:43;;;;;;;16.13;6.30;;;12.50;99.90;;;;;;5077892;28;20139;-85
2022/01/02 01:41:21;;;;;;;14.50;6.20;;;12.50;99.90;;;;;;5078056;28;20048;-85
2022/01/02 01:44:05;;;;;;;15.02;6.40;;;12.40;99.90;;;;;;5079326;28;20040;-86
2022/01/02 01:46:31;;;;;;;12.32;6.25;;;12.60;99.90;;;;;;5057750;28;20052;-86
2022/01/02 01:48:57;;;;;;;17.40;6.32;;;12.50;99.90;;;;;;5057825;28;20078;-85
2022/01/02 01:51:24;;;;;;;11.05;5.03;;;13.80;99.90;;;;;;5057985;28;20107;-86
2022/01/02 01:53:50;;;;;;;16.98;6.28;;;12.50;99.90;;;;;;5058053;28;20063;-86
2022/01/02 01:56:16;;;;;;;17.02;6.88;;;12.20;99.90;;;;;;5057880;28;20131;-85
2022/01/02 01:58:42;;;;;;;12.45;5.40;;;13.90;99.90;;;;;;5041000;28;20111;-85
2022/01/02 02:01:07;;;;;;;10.43;5.60;;;12.40;99.90;;;;;;5075901;28;20048;-85
2022/01/02 02:03:33;;;;;;;21.35;9.07;;;12.40;99.90;;;;;;5057586;28;20041;-86
2022/01/02 02:05:59;;;;;;;19.63;7.03;;;12.70;99.90;;;;;;5075744;28;20076;-85
2022/01/02 02:08:26;;;;;;;18.50;7.25;;;12.20;99.90;;;;;;5057403;28;20044;-85
2022/01/02 02:10:56;;;;;;;26.52;9.23;;;13.80;99.90;;;;;;5057534;28;20078;-85
2022/01/02 02:13:22;;;;;;;17.83;8.00;;;12.20;99.90;;;;;;5056409;28;20041;-85
2022/01/02 02:15:50;;;;;;;21.77;9.98;;;13.70;99.90;;;;;;5040768;28;20048;-85
2022/01/02 02:18:16;;;;;;;20.33;8.82;;;12.70;99.90;;;;;;5057152;28;20040;-86
2022/01/02 02:20:42;;;;;;;22.85;7.70;;;12.50;99.90;;;;;;5057241;28;20131;-85
2022/01/02 02:23:08;;;;;;;21.42;9.57;;;13.30;99.90;;;;;;5057116;28;20124;-86
2022/01/02 02:25:36;;;;;;;17.98;8.43;;;12.40;99.90;;;;;;5056955;28;20043;-87
2022/01/02 02:28:06;;;;;;;18.10;8.00;;;13.00;99.90;;;;;;5056996;28;20091;-86
2022/01/02 02:30:34;;;;;;;24.25;8.73;;;12.80;99.90;;;;;;5040337;28;20048;-86
2022/01/02 02:33:03;;;;;;;15.98;8.52;;;12.60;99.90;;;;;;5056959;28;20489;-86
2022/01/02 02:35:32;;;;;;;18.98;8.30;;;12.60;99.90;;;;;;5040707;28;20431;-86
2022/01/02 02:37:58;;;;;;;28.48;12.15;;;12.50;99.90;;;;;;5040258;28;20049;-86
2022/01/02 02:40:26;;;;;;;22.30;10.38;;;12.60;99.90;;;;;;5056648;28;20048;-85
2022/01/02 02:42:57;;;;;;;17.40;8.45;;;12.40;99.90;;;;;;5056943;28;20048;-85
2022/01/02 02:51:06;;;;;;;16.15;8.43;;;13.30;99.90;;;;;;5077093;28;20443;-86
2022/01/02 02:53:33;;;;;;;17.85;8.75;;;12.70;99.90;;;;;;5059844;28;20040;-84
2022/01/02 02:55:59;;;;;;;15.23;8.93;;;13.00;99.90;;;;;;5076863;28;20051;-84
2022/01/02 02:58:41;;;;;;;16.77;8.90;;;12.80;99.90;;;;;;5076454;28;20122;-85
2022/01/02 03:01:08;;;;;;;24.20;10.95;;;11.90;99.90;;;;;;5059749;28;20044;-84
2022/01/02 03:03:34;;;;;;;18.38;11.13;;;13.70;99.90;;;;;;5059089;28;20048;-84
2022/01/02 03:06:00;;;;;;;26.00;13.88;;;12.20;99.90;;;;;;5095029;28;20067;-85
2022/01/02 03:08:27;;;;;;;21.02;9.80;;;11.60;99.90;;;;;;5076301;28;20044;-84
2022/01/02 03:10:53;;;;;;;21.38;11.60;;;15.20;99.90;;;;;;5076489;28;20108;-84
2022/01/02 03:13:18;;;;;;;18.17;10.38;;;13.90;99.90;;;;;;5077061;28;20399;-84
2022/01/02 03:15:44;;;;;;;19.40;10.68;;;13.60;99.90;;;;;;5094585;28;20075;-83
2022/01/02 03:18:09;;;;;;;23.13;10.80;;;13.70;99.90;;;;;;5076203;28;20051;-84
2022/01/02 03:20:35;;;;;;;25.05;13.27;;;12.10;99.90;;;;;;5075691;28;20076;-84
2022/01/02 03:23:01;;;;;;;23.52;11.15;;;12.50;99.90;;;;;;5076010;28;20055;-83
2022/01/02 03:25:26;;;;;;;21.63;11.10;;;11.40;99.90;;;;;;5075878;28;20044;-84
2022/01/02 03:27:52;;;;;;;21.20;10.30;;;12.70;99.90;;;;;;5075812;28;20085;-84
2022/01/02 03:30:18;;;;;;;12.43;7.68;;;13.80;99.90;;;;;;5075910;28;20051;-84
2022/01/02 03:32:43;;;;;;;9.88;6.43;;;14.10;99.90;;;;;;5059433;28;20044;-84
2022/01/02 03:35:09;;;;;;;20.50;9.82;;;12.20;99.90;;;;;;5075766;28;20056;-84
2022/01/02 03:37:35;;;;;;;18.08;9.02;;;11.40;99.90;;;;;;5075651;28;20048;-84
2022/01/02 03:40:04;;;;;;;18.58;10.23;;;12.70;99.90;;;;;;5075997;28;20049;-84
2022/01/02 03:42:30;;;;;;;27.98;12.68;;;13.70;99.90;;;;;;5076111;28;20052;-84
2022/01/02 03:44:59;;;;;;;14.68;8.60;;;12.30;99.90;;;;;;5058194;28;20399;-84
2022/01/02 03:47:25;;;;;;;13.70;8.85;;;15.10;99.90;;;;;;5075738;28;20123;-84
2022/01/02 03:49:51;;;;;;;12.38;7.25;;;12.40;99.90;;;;;;5075888;28;20040;-84
2022/01/02 03:52:16;;;;;;;15.10;9.27;;;12.40;99.90;;;;;;5093701;28;20044;-84
2022/01/02 03:54:42;;;;;;;15.88;7.90;;;14.00;99.90;;;;;;5075790;28;20087;-84
2022/01/02 03:57:08;;;;;;;16.17;9.65;;;13.10;99.90;;;;;;5075578;28;20044;-84
2022/01/02 03:59:33;;;;;;;22.08;10.48;;;11.70;99.90;;;;;;5093463;28;20126;-84
2022/01/02 04:01:59;;;;;;;16.60;10.95;;;11.60;99.90;;;;;;5058865;28;20044;-83
2022/01/02 04:04:26;;;;;;;7.90;5.45;;;14.00;99.90;;;;;;5058744;28;20046;-83
2022/01/02 04:06:52;;;;;;;15.98;8.23;;;11.80;99.90;;;;;;5058742;28;20044;-83
2022/01/02 04:09:18;;;;;;;12.00;7.13;;;14.00;99.90;;;;;;5075437;28;20047;-83
2022/01/02 04:11:43;;;;;;;10.60;7.32;;;11.90;99.90;;;;;;5075879;28;20044;-83
2022/01/02 04:14:09;;;;;;;17.00;8.07;;;11.90;99.90;;;;;;5075481;28;20066;-83
2022/01/02 04:16:35;;;;;;;13.45;6.43;;;12.20;99.90;;;;;;5081786;28;20043;-83
2022/01/02 04:19:00;;;;;;;16.52;7.57;;;13.90;99.90;;;;;;5082866;28;20055;-83
2022/01/02 04:21:26;;;;;;;27.98;8.68;;;11.80;99.90;;;;;;5065986;28;20480;-83
2022/01/02 04:23:52;;;;;;;25.08;8.15;;;13.50;99.90;;;;;;5082146;28;20055;-83
2022/01/02 04:26:17;;;;;;;31.00;8.88;;;12.70;99.90;;;;;;5081867;28;20042;-83
2022/01/02 04:28:44;;;;;;;21.38;8.65;;;13.80;99.90;;;;;;5081541;28;20170;-84
2022/01/02 04:31:11;;;;;;;33.45;11.23;;;14.30;99.90;;;;;;5100104;28;20404;-83
2022/01/02 04:33:37;;;;;;;39.50;11.48;;;12.50;99.90;;;;;;5082150;28;20529;-83
2022/01/02 04:36:04;;;;;;;29.80;11.43;;;12.70;99.90;;;;;;5081790;28;20047;-82
2022/01/02 04:38:30;;;;;;;38.63;13.65;;;13.30;99.90;;;;;;5081765;28;20055;-83
2022/01/02 04:40:55;;;;;;;35.90;13.05;;;13.60;99.90;;;;;;5065072;28;20044;-83
2022/01/02 04:43:21;;;;;;;31.58;12.13;;;12.50;99.90;;;;;;5082056;28;20044;-83
2022/01/02 04:45:47;;;;;;;26.38;10.68;;;15.80;99.90;;;;;;5081494;28;20052;-83
2022/01/02 04:48:13;;;;;;;37.92;11.18;;;16.50;99.90;;;;;;5081543;28;20051;-83
2022/01/02 04:50:39;;;;;;;32.95;11.60;;;14.50;99.90;;;;;;5065282;28;20130;-83
2022/01/02 04:53:05;;;;;;;31.25;9.20;;;14.20;99.90;;;;;;5065201;28;20046;-82
2022/01/02 04:55:31;;;;;;;41.30;12.13;;;10.80;99.90;;;;;;5065135;28;20036;-83
2022/01/02 04:57:56;;;;;;;21.33;8.23;;;15.50;99.90;;;;;;5080957;28;20080;-83
2022/01/02 05:00:22;;;;;;;20.05;7.15;;;14.30;99.90;;;;;;5081751;28;20039;-83
2022/01/02 05:02:49;;;;;;;19.85;7.05;;;11.60;99.90;;;;;;5081840;28;20081;-82
2022/01/02 05:05:16;;;;;;;29.05;9.23;;;15.20;99.90;;;;;;5081623;28;20122;-82
2022/01/02 05:07:42;;;;;;;29.88;9.10;;;13.40;99.90;;;;;;5098638;28;20051;-83
2022/01/02 05:12:59;;;;;;;24.98;7.22;;;11.30;99.90;;;;;;5081418;28;20059;-83
2022/01/02 05:15:24;;;;;;;17.77;5.97;;;12.40;99.90;;;;;;5081497;28;20048;-84
2022/01/02 05:17:50;;;;;;;22.00;6.70;;;12.30;99.90;;;;;;5064831;28;20058;-83
2022/01/02 05:20:16;;;;;;;29.00;7.72;;;10.40;99.90;;;;;;5098701;28;20101;-83
2022/01/02 05:22:41;;;;;;;28.70;7.40;;;12.90;99.90;;;;;;5081360;28;20044;-83
2022/01/02 05:25:07;;;;;;;21.45;6.82;;;14.00;99.90;;;;;;5098403;28;20461;-82
2022/01/02 05:27:33;;;;;;;21.67;6.30;;;14.40;99.90;;;;;;5096568;28;20434;-83
2022/01/02 05:29:58;;;;;;;27.00;7.15;;;12.50;99.90;;;;;;5079092;28;20036;-83
2022/01/02 05:32:24;;;;;;;27.55;7.30;;;10.90;99.90;;;;;;5078311;28;20048;-83
2022/01/02 05:34:50;;;;;;;29.63;6.78;;;12.00;99.90;;;;;;5077995;28;20040;-83
2022/01/02 05:37:15;;;;;;;28.63;7.45;;;13.20;99.90;;;;;;5077272;28;20052;-83
2022/01/02 05:39:41;;;;;;;33.17;6.63;;;12.50;99.90;;;;;;5077870;28;20044;-83
2022/01/02 05:42:08;;;;;;;33.53;5.28;;;13.90;99.90;;;;;;5061074;28;20130;-83
2022/01/02 05:44:34;;;;;;;24.08;5.63;;;10.50;99.90;;;;;;5077979;28;20048;-83
2022/01/02 05:46:59;;;;;;;22.65;4.53;;;12.90;99.90;;;;;;5077057;28;20470;-83
2022/01/02 05:49:25;;;;;;;31.92;5.22;;;15.40;99.90;;;;;;5077772;28;20063;-83
2022/01/02 05:51:51;;;;;;;26.23;4.90;;;15.00;99.90;;;;;;5077771;28;20102;-83
2022/01/02 05:54:16;;;;;;;30.02;5.78;;;13.30;99.90;;;;;;5077666;28;20096;-82
2022/01/02 05:56:42;;;;;;;31.60;6.85;;;15.10;99.90;;;;;;5096064;28;20183;-83
2022/01/02 05:59:08;;;;;;;35.67;6.13;;;13.50;99.90;;;;;;5077980;28;20059;-82
2022/01/02 06:01:33;;;;;;;23.52;4.88;;;11.80;99.90;;;;;;5077597;28;20048;-83
2022/01/02 06:04:00;;;;;;;19.85;5.03;;;13.00;99.90;;;;;;5077827;28;20040;-83
2022/01/02 06:06:26;;;;;;;17.95;4.03;;;14.00;99.90;;;;;;5077529;28;20492;-82
2022/01/02 06:08:52;;;;;;;21.58;4.80;;;10.60;99.90;;;;;;5077791;28;20498;-83
2022/01/02 06:11:17;;;;;;;21.48;6.05;;;16.10;99.90;;;;;;5061048;28;20040;-83
2022/01/02 06:13:43;;;;;;;18.33;5.00;;;15.10;99.90;;;;;;5060725;28;20044;-83
2022/01/02 06:16:11;;;;;;;18.30;5.45;;;12.70;99.90;;;;;;5061005;28;20408;-83
2022/01/02 06:18:36;;;;;;;15.57;4.57;;;14.90;99.90;;;;;;5060753;28;20052;-83
2022/01/02 06:21:02;;;;;;;20.55;5.78;;;13.30;99.90;;;;;;5060575;28;20035;-83
2022/01/02 06:23:28;;;;;;;21.33;5.53;;;13.00;99.90;;;;;;5077830;28;20097;-83
2022/01/02 06:25:54;;;;;;;10.98;5.03;;;12.50;99.90;;;;;;5077149;28;20075;-83
2022/01/02 06:28:19;;;;;;;9.85;4.97;;;15.50;99.90;;;;;;5060499;28;20043;-83
2022/01/02 06:30:45;;;;;;;16.95;6.93;;;13.70;99.90;;;;;;5076967;28;20036;-83
2022/01/02 06:33:11;;;;;;;16.38;6.40;;;11.70;99.90;;;;;;5076971;28;20119;-83
2022/01/02 06:35:39;;;;;;;12.80;6.20;;;13.60;99.90;;;;;;5076984;28;20040;-83
2022/01/02 06:38:14;;;;;;;12.60;5.57;;;13.30;99.90;;;;;;5059298;28;20166;-83
2022/01/02 06:40:40;;;;;;;16.08;5.63;;;15.50;99.90;;;;;;5060342;28;20448;-82
2022/01/02 06:43:06;;;;;;;21.08;5.43;;;12.60;99.90;;;;;;5076291;28;20084;-84
2022/01/02 06:45:35;;;;;;;7.57;4.00;;;13.90;99.90;;;;;;5056059;28;20040;-85
2022/01/02 06:48:02;;;;;;;13.95;5.38;;;14.20;99.90;;;;;;5036728;28;20049;-82
2022/01/02 06:50:28;;;;;;;11.48;4.75;;;14.30;99.90;;;;;;5020385;28;20076;-83
2022/01/02 06:52:54;;;;;;;24.00;7.00;;;14.50;99.90;;;;;;5036356;28;20126;-83
2022/01/02 06:55:19;;;;;;;27.10;8.38;;;15.30;99.90;;;;;;5038214;28;20131;-83
2022/01/02 06:57:45;;;;;;;18.65;7.78;;;11.30;99.90;;;;;;5039945;28;20076;-83
2022/01/02 07:00:11;;;;;;;17.52;7.47;;;14.30;99.90;;;;;;5056694;28;20076;-84
2022/01/02 07:02:37;;;;;;;21.77;7.60;;;12.60;99.90;;;;;;5056747;28;20036;-83
2022/01/02 07:05:03;;;;;;;18.52;7.25;;;10.60;99.90;;;;;;5056559;28;20059;-83
2022/01/02 07:07:30;;;;;;;27.10;8.60;;;11.30;99.90;;;;;;5056531;28;20123;-83
2022/01/02 07:09:56;;;;;;;19.98;7.97;;;10.00;99.90;;;;;;5039903;28;20040;-83
2022/01/02 07:12:23;;;;;;;25.90;8.57;;;12.30;99.90;;;;;;5039485;28;20546;-83
2022/01/02 07:14:50;;;;;;;21.98;8.27;;;12.80;99.90;;;;;;5056172;28;20106;-82
2022/01/02 07:17:15;;;;;;;16.80;7.38;;;10.90;99.90;;;;;;5039693;28;20123;-83
2022/01/02 07:19:41;;;;;;;17.00;5.82;;;11.80;99.90;;;;;;5056095;28;20084;-83
2022/01/02 07:22:07;;;;;;;13.43;4.97;;;10.40;99.90;;;;;;5074172;28;20047;-83
2022/01/02 07:24:33;;;;;;;13.57;3.78;;;14.00;99.90;;;;;;5040030;28;20089;-83
2022/01/02 07:27:00;;;;;;;18.02;4.32;;;10.00;99.90;;;;;;5056260;28;20393;-83
2022/01/02 07:29:26;;;;;;;22.92;4.97;;;11.60;99.90;;;;;;5039294;28;20044;-84
2022/01/02 07:31:52;;;;;;;33.10;5.80;;;11.70;99.90;;;;;;5039531;28;20773;-83
2022/01/02 07:34:18;;;;;;;32.38;5.65;;;14.20;99.90;;;;;;5056222;28;20036;-83
2022/01/02 07:36:44;;;;;;;35.08;5.57;;;12.60;99.90;;;;;;5055907;28;20047;-83
2022/01/02 07:39:12;;;;;;;24.25;5.00;;;11.30;99.90;;;;;;5055761;28;20107;-83
2022/01/02 07:41:38;;;;;;;25.00;4.78;;;13.30;99.90;;;;;;5073822;28;20041;-83
2022/01/02 07:44:04;;;;;;;23.48;5.45;;;13.60;99.90;;;;;;5055597;28;20044;-83
2022/01/02 07:46:31;;;;;;;39.95;5.50;;;10.30;99.90;;;;;;5062868;28;20056;-83
2022/01/02 07:48:56;;;;;;;29.17;5.93;;;10.40;99.90;;;;;;5075783;28;20492;-82
2022/01/02 07:51:22;;;;;;;40.78;6.25;;;10.30;99.90;;;;;;5074393;28;20055;-83
2022/01/02 07:53:48;;;;;;;32.88;4.68;;;13.50;99.90;;;;;;5074473;28;20063;-83
2022/01/02 07:56:14;;;;;;;21.90;5.55;;;12.50;99.90;;;;;;5075811;28;20057;-83
2022/01/02 07:58:40;;;;;;;31.80;5.05;;;11.20;99.90;;;;;;5075607;28;20040;-82
2022/01/02 08:01:06;;;;;;;25.77;4.68;;;13.30;99.90;;;;;;5058852;28;20457;-83
2022/01/02 08:03:32;;;;;;;30.48;4.50;;;10.60;99.90;;;;;;5075731;28;20048;-83
2022/01/02 08:05:57;;;;;;;32.90;4.80;;;9.80;99.90;;;;;;5075521;28;20070;-83
2022/01/02 08:08:23;;;;;;;16.98;3.85;;;13.80;99.90;;;;;;5075305;28;20044;-82
2022/01/02 08:10:49;;;;;;;12.00;3.90;;;12.90;99.90;;;;;;5058920;28;20055;-82
2022/01/02 08:13:14;;;;;;;17.85;3.65;;;10.80;99.90;;;;;;5075479;28;20036;-82
2022/01/02 08:15:40;;;;;;;18.27;3.90;;;10.50;99.90;;;;;;5075423;28;20080;-82
2022/01/02 08:18:06;;;;;;;13.68;3.35;;;10.40;99.90;;;;;;5075393;28;20044;-83
2022/01/02 08:20:31;;;;;;;13.23;3.42;;;14.00;99.90;;;;;;5076263;28;20063;-82
2022/01/02 08:22:57;;;;;;;15.88;3.50;;;13.00;99.90;;;;;;5093619;28;20048;-82
2022/01/02 08:25:24;;;;;;;15.20;3.45;;;14.80;99.90;;;;;;5076033;28;20073;-83
2022/01/02 08:27:50;;;;;;;20.90;3.88;;;12.40;99.90;;;;;;5092094;28;20493;-83
2022/01/02 08:30:15;;;;;;;10.90;3.25;;;12.90;99.90;;;;;;5075269;28;20054;-83
2022/01/02 08:32:41;;;;;;;5.75;2.75;;;13.20;99.90;;;;;;5075395;28;20039;-83
2022/01/02 08:35:07;;;;;;;8.35;4.32;;;13.30;99.90;;;;;;5058547;28;20044;-83
2022/01/02 08:37:33;;;;;;;9.63;3.20;;;10.80;99.90;;;;;;5058828;28;20039;-83
2022/01/02 08:39:58;;;;;;;8.73;2.70;;;11.80;99.90;;;;;;5075109;28;20496;-83
2022/01/02 08:42:24;;;;;;;5.57;2.42;;;11.80;99.90;;;;;;5075277;28;20048;-82
2022/01/02 08:44:50;;;;;;;6.55;2.85;;;13.50;99.90;;;;;;5075146;28;20472;-82
2022/01/02 08:47:15;;;;;;;8.15;2.80;;;10.60;99.90;;;;;;5074562;28;20546;-83
2022/01/02 08:49:42;;;;;;;5.93;2.55;;;13.80;99.90;;;;;;5075487;28;20074;-82
2022/01/02 08:52:07;;;;;;;5.78;2.42;;;15.20;99.90;;;;;;5075190;28;20109;-83
2022/01/02 08:54:33;;;;;;;5.07;2.85;;;10.70;99.90;;;;;;5075269;28;20126;-83
2022/01/02 08:57:02;;;;;;;7.45;3.25;;;11.20;99.90;;;;;;5075189;28;20086;-83
2022/01/02 08:59:28;;;;;;;10.65;3.13;;;12.70;99.90;;;;;;5073343;28;20040;-82
2022/01/02 09:01:54;;;;;;;11.10;3.35;;;11.00;99.90;;;;;;5075202;28;20118;-82
2022/01/02 09:04:20;;;;;;;10.57;3.08;;;13.20;99.90;;;;;;5062110;28;20042;-82
2022/01/02 09:06:46;;;;;;;5.75;3.33;;;11.10;99.90;;;;;;5079157;28;20044;-82
2022/01/02 09:09:12;;;;;;;6.72;3.45;;;12.70;99.90;;;;;;5078589;28;20048;-82
2022/01/02 09:11:38;;;;;;;8.85;3.50;;;13.80;99.90;;;;;;5078696;28;20097;-82
2022/01/02 09:14:04;;;;;;;6.95;3.58;;;14.80;99.90;;;;;;5061811;28;20036;-82
2022/01/02 09:16:30;;;;;;;11.40;4.20;;;12.20;99.90;;;;;;5078359;28;20051;-82
2022/01/02 09:18:56;;;;;;;10.70;3.95;;;13.80;99.90;;;;;;5096684;28;20044;-83
2022/01/02 09:21:22;;;;;;;10.88;3.78;;;13.20;99.90;;;;;;5078806;28;20040;-82
2022/01/02 09:23:47;;;;;;;9.43;3.08;;;12.00;99.90;;;;;;5063363;28;20442;-82
2022/01/02 09:26:13;;;;;;;9.40;3.63;;;10.90;99.90;;;;;;5061549;28;20478;-83
2022/01/02 09:28:39;;;;;;;14.52;3.70;;;11.60;99.90;;;;;;5078177;28;20051;-82
2022/01/02 09:31:05;;;;;;;7.40;3.88;;;14.00;99.90;;;;;;5078142;28;20047;-82
2022/01/02 09:33:34;;;;;;;8.52;3.63;;;11.00;99.90;;;;;;5078487;28;20432;-82
2022/01/02 09:36:00;;;;;;;9.10;3.35;;;12.80;99.90;;;;;;5078843;28;20369;-83
2022/01/02 09:38:25;;;;;;;10.65;3.80;;;10.70;99.90;;;;;;5061355;28;20048;-82
2022/01/02 09:40:52;;;;;;;10.73;4.20;;;10.80;99.90;;;;;;5061137;28;20134;-82
2022/01/02 09:43:18;;;;;;;13.35;4.80;;;12.10;99.90;;;;;;5061702;28;20076;-82
2022/01/02 09:45:46;;;;;;;12.45;4.43;;;14.00;99.90;;;;;;5095166;28;20044;-82
2022/01/02 09:48:11;;;;;;;10.95;4.65;;;16.10;99.90;;;;;;5076876;28;20492;-82
2022/01/02 09:50:39;;;;;;;14.63;5.03;;;14.10;99.90;;;;;;5077887;28;20126;-82
2022/01/02 09:53:06;;;;;;;13.68;6.05;;;12.80;99.90;;;;;;5077651;28;20032;-82
2022/01/02 09:55:32;;;;;;;19.75;5.93;;;16.00;99.90;;;;;;5078317;28;20087;-82
2022/01/02 09:58:00;;;;;;;17.08;4.78;;;10.60;99.90;;;;;;5077666;28;20044;-82
2022/01/02 10:00:27;;;;;;;23.40;6.53;;;12.40;99.90;;;;;;5077610;28;20076;-83
2022/01/02 10:03:01;;;;;;;23.60;5.57;;;11.70;99.90;;;;;;5077815;28;20048;-83
2022/01/02 10:05:28;;;;;;;20.85;6.05;;;11.00;99.90;;;;;;5077103;28;20048;-83
2022/01/02 10:07:55;;;;;;;20.20;6.40;;;11.30;99.90;;;;;;5077036;28;20089;-82
2022/01/02 10:10:30;;;;;;;24.70;5.88;;;11.20;99.90;;;;;;5060565;28;20086;-83
2022/01/02 10:13:02;;;;;;;19.77;5.50;;;13.30;99.90;;;;;;5077225;28;20048;-82
2022/01/02 10:15:28;;;;;;;21.50;6.15;;;14.00;99.90;;;;;;5078253;28;20083;-82
2022/01/02 10:18:03;;;;;;;22.95;6.85;;;12.40;99.90;;;;;;5060519;28;20068;-82
2022/01/02 10:20:31;;;;;;;17.52;5.05;;;11.90;99.90;;;;;;5077124;28;20499;-83
2022/01/02 10:23:03;;;;;;;14.98;5.50;;;12.20;99.90;;;;;;5060679;28;20089;-83
2022/01/02 10:25:39;;;;;;;22.55;5.50;;;14.20;99.90;;;;;;5094004;28;20052;-83
2022/01/02 10:28:19;;;;;;;24.88;6.03;;;14.10;99.90;;;;;;5095591;28;20063;-83
2022/01/02 10:30:46;;;;;;;21.60;5.80;;;13.80;99.90;;;;;;5040763;28;20711;-83
2022/01/02 10:33:12;;;;;;;27.50;6.60;;;14.80;99.90;;;;;;5057027;28;20572;-82
2022/01/02 10:35:37;;;;;;;20.08;6.22;;;14.40;99.90;;;;;;5057237;28;20139;-82
2022/01/02 10:38:04;;;;;;;23.02;5.97;;;12.30;99.90;;;;;;5057061;28;20072;-82
2022/01/02 10:40:30;;;;;;;37.92;6.47;;;12.60;99.90;;;;;;5040108;28;20098;-82
2022/01/02 10:42:57;;;;;;;30.25;6.00;;;13.50;99.90;;;;;;5056884;28;20048;-82
2022/01/02 10:45:38;;;;;;;33.88;5.88;;;13.20;99.90;;;;;;5074621;28;20106;-83
2022/01/02 10:48:07;;;;;;;28.88;6.05;;;12.20;99.90;;;;;;5076308;28;20040;-83
2022/01/02 10:50:33;;;;;;;28.77;6.50;;;13.90;99.90;;;;;;5060578;28;20378;-83
2022/01/02 10:53:12;;;;;;;21.80;5.68;;;13.60;99.90;;;;;;5076524;28;20040;-82
2022/01/02 10:55:39;;;;;;;29.73;7.03;;;13.40;99.90;;;;;;5077427;28;20060;-83
2022/01/02 10:58:07;;;;;;;22.52;4.95;;;13.00;99.90;;;;;;5076465;28;20544;-83
2022/01/02 11:00:33;;;;;;;33.63;7.57;;;13.20;99.90;;;;;;5094933;28;20127;-83
2022/01/02 11:02:59;;;;;;;33.85;6.30;;;14.10;99.90;;;;;;5076644;28;20475;-83
2022/01/02 11:05:28;;;;;;;27.08;5.90;;;13.60;99.90;;;;;;5076457;28;20051;-83
2022/01/02 11:07:59;;;;;;;36.95;7.57;;;13.60;99.90;;;;;;5076548;28;20131;-83
2022/01/02 11:10:27;;;;;;;38.75;6.93;;;12.60;99.90;;;;;;5076318;28;20058;-83
2022/01/02 11:12:54;;;;;;;37.05;6.65;;;13.30;99.90;;;;;;5059080;28;20376;-84
2022/01/02 11:15:23;;;;;;;31.48;6.20;;;13.20;99.90;;;;;;5075702;28;20388;-83
2022/01/02 11:17:49;;;;;;;28.73;6.75;;;12.70;99.90;;;;;;5059447;28;20040;-83
2022/01/02 11:20:19;;;;;;;54.75;8.20;;;13.30;99.90;;;;;;5076174;28;20079;-83
2022/01/02 11:22:50;;;;;;;31.95;7.32;;;12.80;99.90;;;;;;5059298;28;20487;-83
2022/01/02 11:25:29;;;;;;;37.40;6.45;;;12.40;99.90;;;;;;5075535;28;20446;-83
2022/01/02 11:28:00;;;;;;;36.60;5.78;;;13.00;99.90;;;;;;5059359;28;20048;-82
2022/01/02 11:30:30;;;;;;;42.35;8.68;;;13.00;99.90;;;;;;5059263;28;20044;-84
2022/01/02 11:33:01;;;;;;;37.40;7.40;;;13.20;99.90;;;;;;5059358;28;20478;-83
2022/01/02 11:35:31;;;;;;;34.47;6.32;;;14.10;99.90;;;;;;5059428;28;20431;-83
2022/01/02 11:38:02;;;;;;;27.42;6.80;;;13.30;99.90;;;;;;5075875;28;20377;-83
2022/01/02 11:40:43;;;;;;;36.53;6.80;;;13.00;99.90;;;;;;5059357;28;20455;-83
2022/01/02 11:43:09;;;;;;;41.88;7.45;;;13.10;99.90;;;;;;5059321;28;20369;-83
2022/01/02 11:45:34;;;;;;;38.38;7.13;;;12.90;99.90;;;;;;5060437;28;20173;-83
2022/01/02 11:48:20;;;;;;;33.00;6.65;;;12.80;99.90;;;;;;5059041;28;20055;-84
2022/01/02 11:50:46;;;;;;;33.17;6.55;;;12.90;99.90;;;;;;5094068;28;20414;-82
2022/01/02 11:53:12;;;;;;;36.83;6.03;;;12.60;99.90;;;;;;5058698;28;20040;-84
2022/01/02 11:55:40;;;;;;;30.50;5.75;;;12.80;99.90;;;;;;5075642;28;20044;-83
2022/01/02 11:58:07;;;;;;;41.50;7.07;;;12.90;99.90;;;;;;5075868;28;20136;-83
2022/01/02 12:00:39;;;;;;;39.88;6.75;;;13.10;99.90;;;;;;5059098;28;20123;-83
2022/01/02 12:03:05;;;;;;;34.85;7.10;;;13.10;99.90;;;;;;5058375;28;20040;-83
2022/01/02 12:05:31;;;;;;;41.53;7.32;;;13.20;99.90;;;;;;5076650;28;20125;-83
2022/01/02 12:08:00;;;;;;;39.47;5.90;;;13.80;99.90;;;;;;5076093;28;20054;-83
2022/01/02 12:10:31;;;;;;;38.92;6.40;;;13.00;99.90;;;;;;5058543;28;20040;-83
2022/01/02 12:12:58;;;;;;;40.42;6.03;;;13.00;99.90;;;;;;5038807;28;20032;-83
2022/01/02 12:15:31;;;;;;;35.28;6.90;;;12.80;99.90;;;;;;5072340;28;20374;-83
2022/01/02 12:18:26;;;;;;;31.98;5.22;;;12.80;99.90;;;;;;5038654;28;20044;-83
2022/01/02 12:20:52;;;;;;;30.13;5.30;;;12.90;99.90;;;;;;5054724;28;20052;-84
2022/01/02 12:23:41;;;;;;;35.38;5.07;;;12.80;99.90;;;;;;5071945;28;20041;-83
2022/01/02 12:26:08;;;;;;;29.13;4.47;;;12.90;99.90;;;;;;5072064;28;20396;-83
2022/01/02 12:28:43;;;;;;;26.40;4.28;;;12.80;99.90;;;;;;5071977;28;20036;-83
2022/01/02 12:31:11;;;;;;;24.45;4.30;;;12.50;99.90;;;;;;5072135;28;20135;-83
2022/01/02 12:33:37;;;;;;;31.88;5.20;;;12.60;99.90;;;;;;5055332;28;20090;-83
2022/01/02 12:36:10;;;;;;;28.40;3.97;;;12.30;99.90;;;;;;5056267;28;20045;-83
2022/01/02 12:38:55;;;;;;;32.25;4.57;;;12.50;99.90;;;;;;5058953;28;20055;-83
2022/01/02 12:41:24;;;;;;;32.60;4.75;;;12.70;99.90;;;;;;5059024;28;20111;-83
2022/01/02 12:43:56;;;;;;;28.40;4.60;;;12.70;99.90;;;;;;5059048;28;20044;-83
2022/01/02 12:46:49;;;;;;;36.88;4.72;;;12.80;99.90;;;;;;5059144;28;20044;-83
2022/01/02 12:49:18;;;;;;;33.40;4.50;;;12.90;99.90;;;;;;5058536;28;20052;-83